Impacts TAF Board
For situational awareness. Not to be used for flight planning purposes.
IDs:

KHOU - Houston/Hobby Arpt, TX, US

Issued at 1735 UTC 23 Jan 2020
Updated at 1940 UTC 23 Jan 2020
Potential Impact None Slight Moderate High
Time<<24/08Z 24/09Z 24/10Z 24/11Z 24/12Z 24/13Z 24/14Z 24/15Z 24/16Z 24/17Z 24/18Z 24/19Z 24/20Z>>
Type PRVL PRVL PRVL PRVL PRVL PRVL PRVL PRVL PRVL PRVL
VIS >6 >6 >6 >6 >6 >6 >6 >6 >6 >6
CIG -- -- -- -- -- -- -- -- -- --
Cover SKC SKC SKC SKC SKC SKC SKC SKC SKC SKC
FltCat VFR VFR VFR VFR VFR VFR VFR VFR VFR VFR
WX -- -- -- -- -- -- -- -- -- --
WDir 340 340 340 340 340 340 VRB VRB VRB VRB
WSpd 7 7 7 7 7 7 4 4 4 4
WGst -- -- -- -- -- -- -- -- -- --
R04/22
XWnd 6 6 6 6 6 6 VRB VRB VRB VRB 0 0 0
HWnd 3 3 3 3 3 3 VRB VRB VRB VRB 0 0 0
R12/30
XWnd 3 3 3 3 3 3 VRB VRB VRB VRB 0 0 0
HWnd -6 -6 -6 -6 -6 -6 VRB VRB VRB VRB 0 0 0
R17/35
XWnd -2 -2 -2 -2 -2 -2 VRB VRB VRB VRB 0 0 0
HWnd -7 -7 -7 -7 -7 -7 VRB VRB VRB VRB 0 0 0
Raw TAF
KHOU 231735Z 2318/2418 30010KT P6SM OVC016
  TEMPO 2320/2322 32010G17KT SCT018
  FM232200 33013KT P6SM SKC
  FM240200 34007KT P6SM SKC
  FM241400 VRB04KT P6SM SKC


METAR Board
Radar Display
Forecast Discussion
For situational awareness. Not to be used for flight planning purposes.